Time;durP1;ratioP1;P1;durP2;ratioP2;P2;SDS_P1;SDS_P2;PMS_P1;PMS_P2;Temp;Humidity;BMP_temperature;BMP_pressure;BME280_temperature;BME280_humidity;BME280_pressure;Samples;Min_cycle;Max_cycle;Signal;HPM_P1;HPM_P2
2023/12/06 00:00:25;;;;;;;24.63;12.30;;;;;;;0.81;100.00;100944.81;5005692;28;20029;-86
2023/12/06 00:02:51;;;;;;;27.27;13.50;;;;;;;0.82;100.00;100941.44;5005777;28;20152;-86
2023/12/06 00:05:16;;;;;;;31.07;15.83;;;;;;;0.81;100.00;100945.66;5000171;28;20381;-85
2023/12/06 00:07:41;;;;;;;26.50;13.50;;;;;;;0.83;100.00;100945.72;5011211;28;20034;-87
2023/12/06 00:10:07;;;;;;;28.30;14.50;;;;;;;0.82;100.00;100944.84;5014625;28;20032;-86
2023/12/06 00:12:32;;;;;;;30.17;15.37;;;;;;;0.85;100.00;100954.28;5006871;28;20397;-86
2023/12/06 00:14:58;;;;;;;28.97;15.10;;;;;;;0.86;100.00;100959.44;5013531;28;20033;-85
2023/12/06 00:17:23;;;;;;;29.03;14.20;;;;;;;0.85;100.00;100959.41;4992648;28;20021;-86
2023/12/06 00:19:48;;;;;;;31.93;15.63;;;;;;;0.86;100.00;100959.44;5010331;28;20091;-87
2023/12/06 00:22:14;;;;;;;28.47;15.23;;;;;;;0.84;100.00;100953.41;5012237;28;20124;-86
2023/12/06 00:24:40;;;;;;;30.33;14.93;;;;;;;0.86;100.00;100955.97;5015912;28;20018;-85
2023/12/06 00:27:05;;;;;;;33.27;16.80;;;;;;;0.88;100.00;100969.69;5008214;28;20037;-86
2023/12/06 00:29:31;;;;;;;29.70;15.23;;;;;;;0.87;100.00;100967.97;4988381;28;20032;-86
2023/12/06 00:31:56;;;;;;;33.17;15.60;;;;;;;0.89;100.00;100961.16;4995098;28;20149;-87
2023/12/06 00:34:22;;;;;;;33.20;16.40;;;;;;;0.92;100.00;100968.91;4994998;28;20033;-86
2023/12/06 00:36:48;;;;;;;30.97;15.60;;;;;;;0.90;100.00;100965.44;4993164;28;20108;-87
2023/12/06 00:39:14;;;;;;;30.67;15.67;;;;;;;0.89;100.00;100966.28;5019239;28;20021;-86
2023/12/06 00:41:40;;;;;;;33.17;16.60;;;;;;;0.90;100.00;100971.44;4995133;28;20123;-85
2023/12/06 00:44:05;;;;;;;29.70;14.93;;;;;;;0.89;100.00;100973.97;5003744;28;20029;-86
2023/12/06 00:46:30;;;;;;;35.53;16.63;;;;;;;0.91;100.00;100977.41;5010337;28;20088;-86
2023/12/06 00:48:58;;;;;;;31.53;16.23;;;;;;;0.92;100.00;100981.72;5019112;28;20088;-86
2023/12/06 00:51:23;;;;;;;32.90;16.60;;;;;;;0.93;100.00;100985.16;4990305;28;20022;-86
2023/12/06 00:53:49;;;;;;;31.33;15.47;;;;;;;0.93;100.00;100991.13;5001623;28;20087;-86
2023/12/06 00:56:14;;;;;;;31.93;16.20;;;;;;;0.94;100.00;101000.53;5007032;28;20018;-86
2023/12/06 00:58:41;;;;;;;35.47;17.17;;;;;;;0.94;100.00;101000.53;4999221;28;20033;-86
2023/12/06 01:01:06;;;;;;;31.83;15.93;;;;;;;0.93;100.00;101008.19;5015301;28;20369;-86
2023/12/06 01:03:32;;;;;;;33.10;16.00;;;;;;;0.95;100.00;100997.13;5013749;28;20119;-86
2023/12/06 01:05:57;;;;;;;29.77;15.10;;;;;;;0.96;100.00;101000.53;5016502;28;20520;-86
2023/12/06 01:08:24;;;;;;;32.20;16.43;;;;;;;0.96;100.00;101006.53;4999002;28;20481;-86
2023/12/06 01:10:50;;;;;;;32.07;15.23;;;;;;;0.96;100.00;101003.97;5013022;28;20026;-86
2023/12/06 01:13:15;;;;;;;31.67;14.93;;;;;;;0.97;100.00;101018.53;5015044;28;20026;-86
2023/12/06 01:15:40;;;;;;;29.23;14.67;;;;;;;0.98;100.00;101021.94;4992516;28;20024;-86
2023/12/06 01:18:06;;;;;;;33.23;15.33;;;;;;;0.99;100.00;101029.66;5012879;28;20477;-86
2023/12/06 01:20:31;;;;;;;30.97;14.67;;;;;;;0.97;100.00;101026.19;5012126;28;20436;-86
2023/12/06 01:22:56;;;;;;;31.93;15.77;;;;;;;0.97;100.00;101022.75;5010008;28;20555;-87
2023/12/06 01:25:22;;;;;;;28.93;14.60;;;;;;;0.99;100.00;101024.53;5011236;28;20040;-86
2023/12/06 01:27:47;;;;;;;32.20;15.57;;;;;;;1.03;100.00;101033.97;5010142;28;20037;-86
2023/12/06 01:30:13;;;;;;;32.63;14.57;;;;;;;1.03;100.00;101031.41;5012116;28;20021;-86
2023/12/06 01:32:39;;;;;;;31.77;15.67;;;;;;;1.04;100.00;101034.84;5019767;28;20060;-86
2023/12/06 01:35:05;;;;;;;30.87;14.87;;;;;;;1.04;100.00;101038.25;5009752;28;20507;-87
2023/12/06 01:37:31;;;;;;;28.97;13.67;;;;;;;1.07;100.00;101042.59;5019565;28;20026;-86
2023/12/06 01:39:56;;;;;;;33.37;16.93;;;;;;;1.04;100.00;101045.94;4995380;28;20026;-86
2023/12/06 01:42:21;;;;;;;30.63;14.43;;;;;;;1.08;100.00;101043.44;4991197;28;20026;-86
2023/12/06 01:44:47;;;;;;;33.23;15.90;;;;;;;1.06;100.00;101046.84;4975871;28;20042;-86
2023/12/06 01:47:13;;;;;;;31.30;15.47;;;;;;;1.01;100.00;101048.47;4989958;28;20069;-86
2023/12/06 01:49:39;;;;;;;31.13;14.93;;;;;;;1.01;100.00;101052.72;4991991;28;20029;-87
2023/12/06 01:52:06;;;;;;;30.17;14.53;;;;;;;1.01;100.00;101056.16;4986796;28;20037;-86
2023/12/06 01:54:31;;;;;;;28.63;14.07;;;;;;;1.01;100.00;101063.84;4987414;28;20026;-86
2023/12/06 01:56:57;;;;;;;26.87;13.33;;;;;;;1.03;100.00;101062.16;4993896;28;20091;-86
2023/12/06 01:59:23;;;;;;;31.50;14.63;;;;;;;1.03;100.00;101069.84;4992207;28;20018;-87
2023/12/06 02:01:49;;;;;;;29.23;14.23;;;;;;;1.02;100.00;101070.72;4994214;28;20034;-86
2023/12/06 02:04:14;;;;;;;29.43;14.70;;;;;;;1.03;100.00;101064.72;4993454;28;20029;-86
2023/12/06 02:06:39;;;;;;;28.43;13.80;;;;;;;1.04;100.00;101069.00;4977573;28;20031;-86
2023/12/06 02:09:05;;;;;;;29.77;13.77;;;;;;;1.08;100.00;101069.06;4994328;28;20026;-87
2023/12/06 02:11:30;;;;;;;26.43;13.40;;;;;;;1.08;100.00;101069.06;4976803;28;20394;-86
2023/12/06 02:13:56;;;;;;;29.33;14.07;;;;;;;1.08;100.00;101069.06;4977287;28;20474;-86
2023/12/06 02:16:22;;;;;;;28.33;14.00;;;;;;;1.11;100.00;101077.66;4990048;28;20057;-86
2023/12/06 02:18:48;;;;;;;30.37;15.07;;;;;;;1.11;100.00;101079.38;4991544;28;20100;-85
2023/12/06 02:21:13;;;;;;;29.37;15.13;;;;;;;1.09;100.00;101070.78;4993061;28;20032;-86
2023/12/06 02:23:42;;;;;;;28.33;14.43;;;;;;;1.10;100.00;101082.78;4997161;28;20028;-87
2023/12/06 02:26:07;;;;;;;28.23;14.13;;;;;;;1.09;100.00;101083.59;4994447;28;20353;-86
2023/12/06 02:28:33;;;;;;;27.97;14.77;;;;;;;1.10;100.00;101078.53;4993009;28;20033;-86
2023/12/06 02:30:58;;;;;;;28.73;15.20;;;;;;;1.09;100.00;101081.03;4972904;28;20034;-86
2023/12/06 02:33:26;;;;;;;25.83;14.27;;;;;;;1.10;100.00;101085.31;4987676;28;20588;-86
2023/12/06 02:36:02;;;;;;;27.27;14.30;;;;;;;1.10;100.00;101081.09;5003573;28;20033;-86
2023/12/06 02:38:29;;;;;;;27.83;14.40;;;;;;;1.10;100.00;101082.78;4977145;28;20030;-86
2023/12/06 02:40:58;;;;;;;25.67;13.37;;;;;;;1.11;100.00;101087.06;5005677;28;20061;-85
2023/12/06 02:43:23;;;;;;;24.93;12.90;;;;;;;1.12;100.00;101087.06;5011559;28;20041;-86
2023/12/06 02:45:49;;;;;;;25.37;13.60;;;;;;;1.13;100.00;101082.81;5008166;28;20404;-86
2023/12/06 02:48:16;;;;;;;26.87;13.57;;;;;;;1.14;100.00;101084.56;5009558;28;20027;-86
2023/12/06 02:50:41;;;;;;;24.93;13.43;;;;;;;1.11;100.00;101084.50;4998226;28;20036;-86
2023/12/06 02:53:06;;;;;;;25.67;13.47;;;;;;;1.14;100.00;101084.56;5008948;28;20030;-86
2023/12/06 02:55:32;;;;;;;24.93;13.30;;;;;;;1.16;100.00;101088.00;4993698;28;20048;-86
2023/12/06 02:57:57;;;;;;;25.47;13.20;;;;;;;1.15;100.00;101081.16;5008206;28;20018;-84
2023/12/06 03:00:23;;;;;;;24.93;12.70;;;;;;;1.15;100.00;101087.13;5012368;28;20033;-84
2023/12/06 03:02:48;;;;;;;22.60;12.23;;;;;;;1.16;100.00;101093.13;5008049;28;20488;-85
2023/12/06 03:05:13;;;;;;;23.40;13.23;;;;;;;1.16;100.00;101091.41;5021907;28;20039;-85
2023/12/06 03:07:39;;;;;;;23.27;12.53;;;;;;;1.16;100.00;101096.53;4992360;28;20033;-85
2023/12/06 03:10:04;;;;;;;26.83;13.73;;;;;;;1.16;100.00;101093.97;5009288;28;20466;-84
2023/12/06 03:12:30;;;;;;;23.67;12.73;;;;;;;1.17;100.00;101092.31;5006611;28;20057;-85
2023/12/06 03:14:55;;;;;;;22.37;12.53;;;;;;;1.19;100.00;101093.19;5010760;28;20032;-85
2023/12/06 03:17:20;;;;;;;24.37;12.97;;;;;;;1.19;100.00;101085.50;5008517;28;20044;-85
2023/12/06 03:19:45;;;;;;;24.07;12.67;;;;;;;1.20;100.00;101084.63;5014723;28;20404;-85
2023/12/06 03:22:11;;;;;;;24.53;12.30;;;;;;;1.20;100.00;101090.66;5005390;28;20503;-85
2023/12/06 03:24:36;;;;;;;22.13;12.30;;;;;;;1.23;100.00;101089.81;5012244;28;20026;-85
2023/12/06 03:27:02;;;;;;;21.90;11.83;;;;;;;1.23;100.00;101088.97;5016676;28;20453;-85
2023/12/06 03:29:28;;;;;;;19.40;11.60;;;;;;;1.24;100.00;101086.41;5020333;28;20034;-85
2023/12/06 03:31:53;;;;;;;19.60;11.00;;;;;;;1.27;100.00;101094.16;4990609;28;20076;-85
2023/12/06 03:34:18;;;;;;;21.13;11.37;;;;;;;1.29;100.00;101100.19;5009807;28;20025;-85
2023/12/06 03:36:43;;;;;;;20.33;10.90;;;;;;;1.31;100.00;101102.75;4991237;28;20116;-85
2023/12/06 03:39:09;;;;;;;20.73;11.13;;;;;;;1.32;100.00;101099.38;5008604;28;20061;-85
2023/12/06 03:41:34;;;;;;;21.60;11.43;;;;;;;1.32;100.00;101105.38;5009292;28;20092;-85
2023/12/06 03:43:59;;;;;;;21.90;11.80;;;;;;;1.34;100.00;101108.81;5010921;28;20498;-85
2023/12/06 03:46:25;;;;;;;21.00;10.63;;;;;;;1.35;100.00;101110.56;5008192;28;20029;-85
2023/12/06 03:48:50;;;;;;;21.13;11.40;;;;;;;1.36;100.00;101114.84;5017388;28;20159;-85
2023/12/06 03:51:15;;;;;;;24.30;12.40;;;;;;;1.36;100.00;101112.28;5007526;28;20026;-85
2023/12/06 03:53:41;;;;;;;21.57;11.40;;;;;;;1.37;100.00;101118.25;5007593;28;20048;-85
2023/12/06 03:56:07;;;;;;;22.97;11.87;;;;;;;1.39;100.00;101126.84;5013032;28;20053;-85
2023/12/06 03:58:34;;;;;;;18.13;11.10;;;;;;;1.41;100.00;101124.28;4995230;28;20045;-85
2023/12/06 04:01:00;;;;;;;22.03;12.23;;;;;;;1.41;100.00;101129.41;5007104;28;20030;-85
2023/12/06 04:03:25;;;;;;;20.50;11.23;;;;;;;1.41;100.00;101129.41;5016722;28;20104;-85
2023/12/06 04:05:50;;;;;;;20.47;11.03;;;;;;;1.42;100.00;101120.88;5017745;28;20037;-85
2023/12/06 04:08:16;;;;;;;19.03;11.10;;;;;;;1.44;100.00;101124.34;5009689;28;20052;-85
2023/12/06 04:10:41;;;;;;;22.63;11.30;;;;;;;1.45;100.00;101126.06;5010861;28;20121;-85
2023/12/06 04:13:07;;;;;;;20.83;10.93;;;;;;;1.47;100.00;101134.66;5007356;28;20472;-84
2023/12/06 04:15:32;;;;;;;17.23;10.30;;;;;;;1.47;100.00;101135.50;5010506;28;20025;-85
2023/12/06 04:17:58;;;;;;;17.97;11.13;;;;;;;1.48;100.00;101134.66;5009989;28;20420;-85
2023/12/06 04:20:23;;;;;;;16.80;9.57;;;;;;;1.52;100.00;101143.28;5025702;28;20084;-85
2023/12/06 04:22:49;;;;;;;20.53;12.20;;;;;;;1.53;100.00;101145.03;5006763;28;20123;-85
2023/12/06 04:25:15;;;;;;;18.13;10.80;;;;;;;1.55;100.00;101142.47;5021673;28;20030;-85
2023/12/06 04:27:40;;;;;;;19.83;12.23;;;;;;;1.55;100.00;101143.31;5018249;28;20057;-85
2023/12/06 04:30:06;;;;;;;17.90;10.87;;;;;;;1.55;100.00;101140.75;5020734;28;20029;-84
2023/12/06 04:32:32;;;;;;;18.87;11.37;;;;;;;1.57;100.00;101143.38;5005656;28;20107;-85
2023/12/06 04:34:57;;;;;;;19.47;11.10;;;;;;;1.60;100.00;101153.69;5000870;28;20025;-85
2023/12/06 04:37:23;;;;;;;18.17;10.43;;;;;;;1.60;100.00;101149.41;5004172;28;20034;-85
2023/12/06 04:39:48;;;;;;;18.13;11.20;;;;;;;1.61;100.00;101151.13;5019329;28;20052;-85
2023/12/06 04:42:15;;;;;;;16.93;10.10;;;;;;;1.62;100.00;101152.84;5017728;28;20116;-85
2023/12/06 04:44:40;;;;;;;16.70;9.90;;;;;;;1.64;100.00;101151.19;5008434;28;20033;-85
2023/12/06 04:47:05;;;;;;;16.53;9.40;;;;;;;1.65;100.00;101155.47;5009275;28;20573;-85
2023/12/06 04:49:31;;;;;;;16.00;9.37;;;;;;;1.67;100.00;101158.94;5010723;28;20389;-85
2023/12/06 04:51:57;;;;;;;14.87;9.17;;;;;;;1.69;100.00;101160.66;5020395;28;20033;-85
2023/12/06 04:54:24;;;;;;;15.60;9.17;;;;;;;1.68;100.00;101159.78;5006499;28;20033;-85
2023/12/06 04:56:50;;;;;;;15.17;9.40;;;;;;;1.70;100.00;101162.38;5007991;28;20028;-84
2023/12/06 04:59:16;;;;;;;16.47;9.93;;;;;;;1.71;100.00;101153.84;5008704;28;20028;-85
2023/12/06 05:01:41;;;;;;;14.30;9.03;;;;;;;1.74;100.00;101164.13;5015050;28;20022;-85
2023/12/06 05:04:06;;;;;;;15.80;9.27;;;;;;;1.76;100.00;101165.03;5008669;28;20112;-85
2023/12/06 05:06:32;;;;;;;14.77;9.00;;;;;;;1.78;100.00;101168.47;5003971;28;20038;-84
2023/12/06 05:08:57;;;;;;;18.93;9.67;;;;;;;1.78;100.00;101165.91;5007795;28;20029;-85
2023/12/06 05:11:22;;;;;;;15.30;9.40;;;;;;;1.78;100.00;101163.34;5026437;28;20480;-85
2023/12/06 05:13:49;;;;;;;17.23;9.43;;;;;;;1.78;100.00;101168.47;5013652;28;20464;-85
2023/12/06 05:16:15;;;;;;;15.60;9.20;;;;;;;1.80;100.00;101167.66;5011036;28;20018;-85
2023/12/06 05:18:40;;;;;;;16.60;9.03;;;;;;;1.82;100.00;101171.13;5010129;28;20026;-85
2023/12/06 05:21:05;;;;;;;16.13;9.57;;;;;;;1.85;100.00;101177.13;5013443;28;20029;-85
2023/12/06 05:23:31;;;;;;;15.30;8.87;;;;;;;1.87;100.00;101178.91;5016294;28;20029;-85
2023/12/06 05:25:56;;;;;;;15.87;9.33;;;;;;;1.88;100.00;101180.59;5013521;28;20029;-85
2023/12/06 05:28:21;;;;;;;14.47;8.60;;;;;;;1.90;100.00;101190.91;5010985;28;20034;-85
2023/12/06 05:30:47;;;;;;;15.07;9.60;;;;;;;1.90;100.00;101181.50;5009947;28;20033;-85
2023/12/06 05:33:12;;;;;;;16.17;9.03;;;;;;;1.90;100.00;101186.63;5015547;28;20044;-85
2023/12/06 05:35:37;;;;;;;14.60;8.80;;;;;;;1.90;100.00;101181.50;5012463;28;20084;-85
2023/12/06 05:38:03;;;;;;;15.00;9.47;;;;;;;1.91;100.00;101185.78;5011739;28;20030;-85
2023/12/06 05:40:29;;;;;;;14.17;8.63;;;;;;;1.92;100.00;101182.38;5010997;28;20046;-85
2023/12/06 05:42:54;;;;;;;16.27;8.77;;;;;;;1.92;100.00;101186.66;5012920;28;20022;-85
2023/12/06 05:45:19;;;;;;;15.67;8.93;;;;;;;1.93;100.00;101185.84;4994409;28;20440;-84
2023/12/06 05:47:45;;;;;;;15.93;9.27;;;;;;;1.93;100.00;101188.41;5013933;28;20053;-84
2023/12/06 05:50:11;;;;;;;14.30;8.73;;;;;;;1.95;100.00;101192.69;5012804;28;20022;-85
2023/12/06 05:52:37;;;;;;;15.00;9.13;;;;;;;1.96;100.00;101191.88;5015008;28;20014;-85
2023/12/06 05:55:03;;;;;;;15.10;8.50;;;;;;;1.99;100.00;101198.72;4992766;28;20417;-85
2023/12/06 05:57:28;;;;;;;14.70;8.30;;;;;;;2.01;100.00;101194.50;5015374;28;20022;-85
2023/12/06 05:59:54;;;;;;;15.00;9.30;;;;;;;2.03;100.00;101197.09;5009287;28;20077;-85
2023/12/06 06:02:19;;;;;;;13.97;8.23;;;;;;;2.02;100.00;101195.38;5012700;28;20045;-85
2023/12/06 06:04:44;;;;;;;13.60;8.20;;;;;;;2.04;100.00;101199.69;5005937;28;20048;-85
2023/12/06 06:07:10;;;;;;;14.43;8.83;;;;;;;2.06;100.00;101208.25;5006746;28;20481;-85
2023/12/06 06:09:35;;;;;;;14.37;8.60;;;;;;;2.07;100.00;101203.97;5013468;28;20385;-85
2023/12/06 06:12:00;;;;;;;14.43;8.37;;;;;;;2.08;100.00;101201.47;5008750;28;20037;-85
2023/12/06 06:14:26;;;;;;;13.20;8.07;;;;;;;2.08;100.00;101204.03;4994936;28;20385;-85
2023/12/06 06:16:51;;;;;;;12.37;8.10;;;;;;;2.11;100.00;101204.06;5011087;28;20022;-85
2023/12/06 06:19:17;;;;;;;14.33;8.30;;;;;;;2.12;100.00;101207.50;5016169;28;20025;-85
2023/12/06 06:21:42;;;;;;;13.73;8.50;;;;;;;2.14;100.00;101210.94;5021421;28;20533;-84
2023/12/06 06:24:09;;;;;;;14.70;9.10;;;;;;;2.14;100.00;101210.94;5011828;28;20026;-85
2023/12/06 06:26:35;;;;;;;15.13;8.77;;;;;;;2.17;100.00;101220.38;5011926;28;20169;-85
2023/12/06 06:29:00;;;;;;;15.53;9.43;;;;;;;2.17;100.00;101225.53;4991732;28;20490;-85
2023/12/06 06:31:26;;;;;;;16.47;9.23;;;;;;;2.18;100.00;101217.84;5012010;28;20036;-85
2023/12/06 06:33:51;;;;;;;17.50;9.20;;;;;;;2.19;100.00;101224.72;5016050;28;20033;-85
2023/12/06 06:36:17;;;;;;;14.93;9.20;;;;;;;2.18;100.00;101233.25;5010384;28;20025;-85
2023/12/06 06:38:43;;;;;;;13.57;7.93;;;;;;;2.20;100.00;101234.16;5015963;28;20025;-85
2023/12/06 06:41:08;;;;;;;17.63;9.57;;;;;;;2.21;100.00;101235.00;5008136;28;20056;-85
2023/12/06 06:43:34;;;;;;;16.93;9.33;;;;;;;2.21;100.00;101238.44;5023329;28;20028;-85
2023/12/06 06:45:59;;;;;;;13.73;8.40;;;;;;;2.21;100.00;101238.44;5015196;28;20047;-85
2023/12/06 06:48:24;;;;;;;14.47;9.03;;;;;;;2.21;100.00;101243.59;5027528;28;20380;-85
2023/12/06 06:50:50;;;;;;;16.03;9.73;;;;;;;2.23;100.00;101248.72;5015743;28;20077;-85
2023/12/06 06:53:15;;;;;;;16.93;9.30;;;;;;;2.23;100.00;101252.16;5015987;28;20030;-85
2023/12/06 06:55:41;;;;;;;16.17;9.23;;;;;;;2.23;100.00;101257.28;5015675;28;20083;-85
2023/12/06 06:58:06;;;;;;;14.70;9.40;;;;;;;2.23;100.00;101259.00;5013075;28;20014;-85
2023/12/06 07:00:31;;;;;;;15.57;9.00;;;;;;;2.25;100.00;101265.03;5021815;28;20088;-85
2023/12/06 07:02:57;;;;;;;14.93;9.27;;;;;;;2.26;100.00;101272.72;5015136;28;20025;-85
2023/12/06 07:05:22;;;;;;;16.03;9.57;;;;;;;2.27;100.00;101266.75;5008297;28;20029;-85
2023/12/06 07:07:48;;;;;;;13.97;8.53;;;;;;;2.27;100.00;101266.75;5019869;28;20057;-85
2023/12/06 07:10:13;;;;;;;14.93;9.10;;;;;;;2.30;100.00;101265.97;5009692;28;20469;-85
2023/12/06 07:12:39;;;;;;;16.13;9.17;;;;;;;2.32;100.00;101265.97;4992809;28;20034;-85
2023/12/06 07:15:05;;;;;;;15.77;8.37;;;;;;;2.32;100.00;101261.69;5014516;28;20124;-85
2023/12/06 07:17:31;;;;;;;15.87;9.20;;;;;;;2.32;100.00;101266.81;5006852;28;20408;-85
2023/12/06 07:19:57;;;;;;;16.17;9.43;;;;;;;2.33;100.00;101271.13;5010186;28;20021;-85
2023/12/06 07:22:22;;;;;;;15.33;9.17;;;;;;;2.34;100.00;101266.88;5015494;28;20022;-85
2023/12/06 07:24:48;;;;;;;17.13;9.17;;;;;;;2.36;100.00;101267.75;5015422;28;20025;-85
2023/12/06 07:27:14;;;;;;;17.50;8.73;;;;;;;2.35;100.00;101271.16;5011319;28;20465;-85
2023/12/06 07:29:40;;;;;;;12.40;7.93;;;;;;;2.36;100.00;101270.31;5010041;28;20026;-86
2023/12/06 07:32:06;;;;;;;13.40;8.30;;;;;;;2.37;100.00;101279.75;5014155;28;20037;-85
2023/12/06 07:34:31;;;;;;;14.60;8.07;;;;;;;2.38;100.00;101273.78;4994194;28;20018;-85
2023/12/06 07:36:58;;;;;;;14.30;8.23;;;;;;;2.38;100.00;101276.34;5011840;28;20028;-85
2023/12/06 07:39:23;;;;;;;14.20;8.67;;;;;;;2.40;100.00;101280.66;5009823;28;20019;-85
2023/12/06 07:41:49;;;;;;;13.73;8.23;;;;;;;2.40;100.00;101277.22;4990219;28;20042;-85
2023/12/06 07:44:17;;;;;;;16.30;8.90;;;;;;;2.42;100.00;101285.81;5010342;28;20128;-85
2023/12/06 07:46:43;;;;;;;12.87;8.10;;;;;;;2.43;100.00;101298.69;4993276;28;20390;-85
2023/12/06 07:49:08;;;;;;;14.37;8.23;;;;;;;2.42;100.00;101294.38;5007322;28;20029;-85
2023/12/06 07:51:36;;;;;;;15.97;8.33;;;;;;;2.45;100.00;101298.69;5005915;28;21724;-85
2023/12/06 07:54:01;;;;;;;13.67;7.67;;;;;;;2.46;100.00;101302.16;4989714;28;20057;-86
2023/12/06 07:56:26;;;;;;;15.63;8.87;;;;;;;2.47;100.00;101307.28;5013593;28;20554;-85
2023/12/06 07:58:56;;;;;;;12.53;7.97;;;;;;;2.49;100.00;101305.63;5011909;28;20540;-86
2023/12/06 08:01:22;;;;;;;13.73;7.53;;;;;;;2.50;100.00;101304.78;5005330;28;20022;-84
2023/12/06 08:03:48;;;;;;;13.60;8.27;;;;;;;2.52;100.00;101313.38;5007508;28;20358;-84
2023/12/06 08:06:13;;;;;;;13.37;8.23;;;;;;;2.55;100.00;101310.84;5007878;28;20042;-84
2023/12/06 08:08:39;;;;;;;14.63;8.17;;;;;;;2.58;100.00;101321.16;5012012;28;20057;-84
2023/12/06 08:11:04;;;;;;;15.07;8.93;;;;;;;2.57;100.00;101319.41;5013789;28;20052;-87
2023/12/06 08:13:30;;;;;;;14.83;8.77;;;;;;;2.62;100.00;101331.47;5017940;28;20057;-85
2023/12/06 08:15:55;;;;;;;14.53;9.00;;;;;;;2.62;100.00;101321.19;5023494;28;20049;-85
2023/12/06 08:18:20;;;;;;;13.80;8.37;;;;;;;2.63;100.00;101317.78;5022966;28;20021;-85
2023/12/06 08:20:46;;;;;;;14.13;8.27;;;;;;;2.66;100.00;101322.97;5026986;28;20021;-87
2023/12/06 08:23:11;;;;;;;13.53;8.47;;;;;;;2.68;100.00;101321.31;5003742;28;20018;-85
2023/12/06 08:25:36;;;;;;;14.33;8.90;;;;;;;2.67;100.00;101325.56;5020295;28;20025;-84
2023/12/06 08:28:02;;;;;;;13.80;8.07;;;;;;;2.68;100.00;101321.31;5011790;28;20476;-84
2023/12/06 08:30:28;;;;;;;14.43;8.70;;;;;;;2.69;100.00;101328.16;5012105;28;20021;-85
2023/12/06 08:32:53;;;;;;;16.17;8.73;;;;;;;2.71;100.00;101336.75;5011218;28;20044;-85
2023/12/06 08:35:19;;;;;;;16.00;8.87;;;;;;;2.72;100.00;101335.94;5012591;28;20448;-85
2023/12/06 08:37:45;;;;;;;14.37;8.30;;;;;;;2.75;100.00;101343.66;5017573;28;20481;-84
2023/12/06 08:40:12;;;;;;;16.33;9.40;;;;;;;2.78;100.00;101341.13;5021501;28;20376;-85
2023/12/06 08:42:39;;;;;;;19.23;10.07;;;;;;;2.82;100.00;101345.47;5031512;28;20025;-85
2023/12/06 08:45:06;;;;;;;18.40;9.80;;;;;;;2.84;100.00;101343.81;5013834;28;20036;-85
2023/12/06 08:47:32;;;;;;;18.50;10.37;;;;;;;2.87;100.00;101349.00;5016408;28;20520;-85
2023/12/06 08:49:57;;;;;;;17.03;9.77;;;;;;;2.87;100.00;101354.13;5011737;28;20113;-85
2023/12/06 08:52:23;;;;;;;15.83;9.43;;;;;;;2.90;100.00;101349.88;5013187;28;20429;-85
2023/12/06 08:54:48;;;;;;;15.87;9.80;;;;;;;2.95;100.00;101361.06;5012441;28;20045;-85
2023/12/06 08:57:13;;;;;;;16.10;9.70;;;;;;;2.94;100.00;101359.34;5013207;28;20068;-85
2023/12/06 08:59:39;;;;;;;17.67;8.97;;;;;;;2.97;100.00;101359.38;5020233;28;20104;-85
2023/12/06 09:02:05;;;;;;;13.87;8.37;;;;;;;2.98;100.00;101364.56;5018488;28;20160;-85
2023/12/06 09:04:30;;;;;;;15.53;8.40;;;;;;;2.98;100.00;101368.81;5018330;28;20030;-85
2023/12/06 09:06:56;;;;;;;14.27;8.50;;;;;;;2.99;100.00;101363.69;5011623;28;21678;-85
2023/12/06 09:09:21;;;;;;;15.90;8.70;;;;;;;3.02;100.00;101378.31;5018674;28;20034;-85
2023/12/06 09:11:46;;;;;;;15.77;8.67;;;;;;;3.01;100.00;101379.16;5012988;28;20058;-86
2023/12/06 09:14:12;;;;;;;14.77;8.40;;;;;;;2.99;100.00;101375.69;5016994;28;20038;-86
2023/12/06 09:16:39;;;;;;;14.77;8.70;;;;;;;2.96;100.00;101373.09;4993729;28;20112;-86
2023/12/06 09:19:05;;;;;;;16.33;9.37;;;;;;;2.96;100.00;101375.66;4999979;28;20126;-86
2023/12/06 09:21:45;;;;;;;18.40;10.00;;;;;;;2.95;100.00;101376.50;5013372;28;20201;-85
2023/12/06 09:24:13;;;;;;;18.20;9.97;;;;;;;2.95;100.00;101384.19;4998128;28;20034;-86
2023/12/06 09:26:39;;;;;;;14.90;9.47;;;;;;;2.96;100.00;101383.38;5012933;28;20416;-86
2023/12/06 09:29:06;;;;;;;16.70;9.33;;;;;;;2.96;100.00;101384.25;5000888;28;20044;-86
2023/12/06 09:31:35;;;;;;;14.63;8.67;;;;;;;2.94;100.00;101383.34;5027071;28;20034;-86
2023/12/06 09:34:01;;;;;;;13.67;8.83;;;;;;;2.94;100.00;101393.63;5025905;28;20083;-86
2023/12/06 09:36:27;;;;;;;14.00;8.53;;;;;;;2.91;100.00;101390.13;5026721;28;20397;-86
2023/12/06 09:38:53;;;;;;;15.27;8.83;;;;;;;2.93;100.00;101396.16;5024979;28;20033;-86
2023/12/06 09:41:20;;;;;;;15.63;9.23;;;;;;;2.97;100.00;101390.22;5002799;28;20042;-87
2023/12/06 09:43:46;;;;;;;16.33;8.97;;;;;;;3.00;100.00;101385.13;4996405;28;20080;-88
2023/12/06 09:46:14;;;;;;;15.13;8.43;;;;;;;3.03;100.00;101396.31;4990399;28;20394;-88
2023/12/06 09:48:40;;;;;;;15.73;8.63;;;;;;;3.04;100.00;101397.19;4996661;28;20393;-87
2023/12/06 09:51:05;;;;;;;16.20;8.40;;;;;;;3.01;100.00;101404.88;4997490;28;20049;-89
2023/12/06 09:53:31;;;;;;;17.13;9.27;;;;;;;2.97;100.00;101408.22;5000679;28;20014;-88
2023/12/06 09:55:57;;;;;;;15.70;8.23;;;;;;;2.95;100.00;101420.19;5009761;28;20496;-86
2023/12/06 09:58:22;;;;;;;14.33;7.90;;;;;;;2.95;100.00;101425.31;5004483;28;20389;-87
2023/12/06 10:00:47;;;;;;;14.10;8.27;;;;;;;2.96;100.00;101424.47;4983915;28;20393;-87
2023/12/06 10:03:14;;;;;;;16.40;8.77;;;;;;;2.98;100.00;101422.81;4985500;28;20065;-91
2023/12/06 10:05:40;;;;;;;14.67;8.77;;;;;;;2.98;100.00;101427.94;4996552;28;20026;-84
2023/12/06 10:08:05;;;;;;;14.50;7.90;;;;;;;3.01;100.00;101425.44;4996848;28;20029;-84
2023/12/06 10:10:31;;;;;;;14.37;8.13;;;;;;;3.03;100.00;101423.75;5008069;28;20025;-86
2023/12/06 10:12:56;;;;;;;13.10;7.80;;;;;;;3.05;100.00;101419.50;4978814;28;20554;-87
2023/12/06 10:15:22;;;;;;;12.90;7.70;;;;;;;3.09;100.00;101416.09;4998381;28;20022;-85
2023/12/06 10:17:48;;;;;;;14.47;8.13;;;;;;;3.09;100.00;101418.69;4989874;28;20389;-86
2023/12/06 10:20:14;;;;;;;14.43;7.60;;;;;;;3.13;100.00;101420.47;4994073;28;20033;-86
2023/12/06 10:22:41;;;;;;;14.70;7.50;;;;;;;3.16;100.00;101420.50;4998204;28;20492;-86
2023/12/06 10:25:08;;;;;;;15.17;7.77;;;;;;;3.21;100.00;101419.72;4996771;28;20034;-86
2023/12/06 10:27:35;;;;;;;14.00;7.57;;;;;;;3.25;100.00;101421.47;4998860;28;20066;-86
2023/12/06 10:30:04;;;;;;;13.87;7.30;;;;;;;3.29;100.00;101413.84;4998744;28;20025;-86
2023/12/06 10:32:30;;;;;;;14.43;7.37;;;;;;;3.38;100.00;101417.34;4976237;28;20027;-86
2023/12/06 10:34:59;;;;;;;12.67;7.10;;;;;;;3.47;100.00;101415.78;4994012;28;20054;-86
2023/12/06 10:37:26;;;;;;;13.23;8.00;;;;;;;3.58;100.00;101404.78;4993693;28;20023;-86
2023/12/06 10:40:11;;;;;;;13.97;7.60;;;;;;;3.68;100.00;101411.75;4993376;28;20462;-86
2023/12/06 10:42:40;;;;;;;14.20;7.47;;;;;;;3.75;100.00;101410.09;4993386;28;20085;-86
2023/12/06 10:45:07;;;;;;;11.97;6.63;;;;;;;3.79;100.00;101405.00;4998324;28;20422;-85
2023/12/06 10:47:34;;;;;;;13.10;7.80;;;;;;;3.83;100.00;101412.78;5000972;28;20022;-86
2023/12/06 10:50:00;;;;;;;11.77;7.30;;;;;;;3.86;100.00;101421.38;4995265;28;20028;-86
2023/12/06 10:52:28;;;;;;;12.27;7.17;;;;;;;3.96;100.00;101422.34;4992685;28;20030;-86
2023/12/06 10:54:54;;;;;;;11.07;6.93;;;;;;;4.06;100.00;101418.16;4993513;28;20026;-87
2023/12/06 10:57:20;;;;;;;11.03;6.57;;;;;;;4.16;100.00;101424.28;4977544;28;20029;-87
2023/12/06 10:59:45;;;;;;;10.17;6.37;;;;;;;4.25;100.00;101419.22;4996224;28;20022;-88
2023/12/06 11:02:11;;;;;;;13.73;7.53;;;;;;;4.31;99.57;101423.56;4993412;28;20452;-86
2023/12/06 11:04:54;;;;;;;12.33;7.30;;;;;;;4.35;98.85;101415.88;4993455;28;20023;-87
2023/12/06 11:08:04;;;;;;;10.55;6.32;;;;;;;4.43;100.00;101415.09;4993140;28;20061;-85